Champion III — HO7207 — position and weather

sailwx.info

Track history (hours):
 
Tides and Currents Weather Stations Pressure Air Temp Water Temp Dewpoint Dewpoint Depression Visibility Wind Speed Wind Dir Waves Ship Positions

Champion III

Last reported at 2018-Jun-19 08:03 UTC. Time now 2018-Jun-22 20:16 UTC.
Position N 25°53' W 079°33'.

Length 54 m; draft 3 m.

Type: Cargo ship. MMSI: 351468000.

Date/timePositionNaut miles runAvg speedWind from/ knotsBaromVisibWave heightAir tempDewpointWater temp
2018-Jun-19 08:03N 25°53' W 079°33'0 8.0
2018-Jun-19 08:00N 25°53' W 079°33'4 8.0
2018-Jun-19 07:30N 25°54' W 079°38'4 8.0
2018-Jun-19 07:00N 25°55' W 079°42'4 7.8
2018-Jun-19 06:30N 25°56' W 079°46'4 7.4
2018-Jun-19 06:00N 25°57' W 079°50'3 6.6
2018-Jun-19 05:30N 25°59' W 079°53'3 6.7
2018-Jun-19 05:00N 26°01' W 079°56'3 6.7
2018-Jun-19 04:30N 26°03' W 079°59'3 5.7
2018-Jun-19 04:00N 26°04' W 080°02'3 5.1
2018-Jun-19 03:30N 26°05' W 080°04'3 5.1
2018-Jun-19 03:00N 26°05' W 080°07'0 0.0
2018-Jun-19 02:30N 26°05' W 080°07'0 0.0
2018-Jun-19 02:00N 26°05' W 080°07'0 0.0
2018-Jun-19 01:30N 26°05' W 080°07'0 0.0
2018-Jun-19 01:00N 26°05' W 080°07'0 0.0
2018-Jun-19 00:30N 26°05' W 080°07'0 0.0
2018-Jun-19 00:00N 26°05' W 080°07'0 0.0
2018-Jun-18 23:30N 26°05' W 080°07'0 0.0
2018-Jun-18 23:00N 26°05' W 080°07'0 0.0
2018-Jun-18 22:30N 26°05' W 080°07'0 0.0
2018-Jun-18 22:00N 26°05' W 080°07'0 0.0
2018-Jun-18 21:30N 26°05' W 080°07'0 0.0
2018-Jun-18 21:00N 26°05' W 080°07'0 0.0
2018-Jun-18 20:30N 26°05' W 080°07'0 0.0
2018-Jun-18 20:00N 26°05' W 080°07'0 0.0
2018-Jun-18 19:30N 26°05' W 080°07'0 0.0
2018-Jun-18 19:00N 26°05' W 080°07'0 0.0
2018-Jun-18 18:30N 26°05' W 080°07'0 0.0
2018-Jun-18 18:00N 26°05' W 080°07'0 0.0
2018-Jun-18 17:30N 26°05' W 080°07'0 0.0
2018-Jun-18 17:00N 26°05' W 080°07'0 0.0
2018-Jun-18 16:29N 26°05' W 080°07'0 0.0
2018-Jun-18 16:00N 26°05' W 080°07'0 0.0
2018-Jun-18 15:30N 26°05' W 080°07'0 0.0
2018-Jun-18 15:00N 26°05' W 080°07'0 0.0
2018-Jun-18 14:30N 26°05' W 080°07'0 0.0
2018-Jun-18 14:00N 26°05' W 080°07'0 0.0
2018-Jun-18 13:30N 26°05' W 080°07'0 0.0
2018-Jun-18 13:00N 26°05' W 080°07'0 0.0
2018-Jun-18 12:30N 26°05' W 080°07'0 0.0
2018-Jun-18 12:00N 26°05' W 080°07'0 0.0
2018-Jun-18 11:30N 26°05' W 080°07'2 4.0
2018-Jun-18 11:00N 26°06' W 080°05'4 7.2
2018-Jun-18 10:30N 26°04' W 080°01'1 2.3
2018-Jun-18 10:00N 26°03' W 080°01'1 3.0
2018-Jun-18 09:30N 26°03' W 079°59'3 5.5
2018-Jun-18 09:00N 26°02' W 079°56'3 5.8
2018-Jun-18 08:30N 26°01' W 079°53'3 5.7
2018-Jun-18 08:00N 26°00' W 079°50'3 5.9
2018-Jun-18 07:30N 25°59' W 079°47'3 5.7
2018-Jun-18 07:00N 25°58' W 079°44'3 5.9
2018-Jun-18 06:30N 25°57' W 079°41'6 6.6
2018-Jun-18 05:37N 25°55' W 079°35'1 3.1
2018-Jun-18 05:27N 25°55' W 079°35'  
2018-Jun-12 07:08N 26°29' W 079°48'1 7.5
2018-Jun-12 07:00N 26°28' W 079°48'4 7.4
2018-Jun-12 06:30N 26°25' W 079°45'4 7.5
2018-Jun-12 05:58N 26°22' W 079°43'5 7.8
2018-Jun-12 05:20N 26°17' W 079°40'2 7.6
2018-Jun-12 05:00N 26°15' W 079°38'4 7.4
2018-Jun-12 04:30N 26°12' W 079°36'4 7.3
2018-Jun-12 04:00N 26°09' W 079°34'4 7.1
2018-Jun-12 03:30N 26°06' W 079°31'  
Track history (hours):
 
Tides and Currents Weather Stations Pressure Air Temp Water Temp Dewpoint Dewpoint Depression Visibility Wind Speed Wind Dir Waves Ship Positions

Champion III

Last reported at 2018-Jun-19 08:03 UTC. Time now 2018-Jun-22 20:17 UTC.
Position N 25°53' W 079°33'.

Length 54 m; draft 3 m.

Type: Cargo ship. MMSI: 351468000.

Date/timePositionNaut miles runAvg speedWind from/ knotsBaromVisibWave heightAir tempDewpointWater temp
2018-Jun-19 08:03N 25°53' W 079°33'0 8.0
2018-Jun-19 08:00N 25°53' W 079°33'4 8.0
2018-Jun-19 07:30N 25°54' W 079°38'4 8.0
2018-Jun-19 07:00N 25°55' W 079°42'4 7.8
2018-Jun-19 06:30N 25°56' W 079°46'4 7.4
2018-Jun-19 06:00N 25°57' W 079°50'3 6.6
2018-Jun-19 05:30N 25°59' W 079°53'3 6.7
2018-Jun-19 05:00N 26°01' W 079°56'3 6.7
2018-Jun-19 04:30N 26°03' W 079°59'3 5.7
2018-Jun-19 04:00N 26°04' W 080°02'3 5.1
2018-Jun-19 03:30N 26°05' W 080°04'3 5.1
2018-Jun-19 03:00N 26°05' W 080°07'0 0.0
2018-Jun-19 02:30N 26°05' W 080°07'0 0.0
2018-Jun-19 02:00N 26°05' W 080°07'0 0.0
2018-Jun-19 01:30N 26°05' W 080°07'0 0.0
2018-Jun-19 01:00N 26°05' W 080°07'0 0.0
2018-Jun-19 00:30N 26°05' W 080°07'0 0.0
2018-Jun-19 00:00N 26°05' W 080°07'0 0.0
2018-Jun-18 23:30N 26°05' W 080°07'0 0.0
2018-Jun-18 23:00N 26°05' W 080°07'0 0.0
2018-Jun-18 22:30N 26°05' W 080°07'0 0.0
2018-Jun-18 22:00N 26°05' W 080°07'0 0.0
2018-Jun-18 21:30N 26°05' W 080°07'0 0.0
2018-Jun-18 21:00N 26°05' W 080°07'0 0.0
2018-Jun-18 20:30N 26°05' W 080°07'0 0.0
2018-Jun-18 20:00N 26°05' W 080°07'0 0.0
2018-Jun-18 19:30N 26°05' W 080°07'0 0.0
2018-Jun-18 19:00N 26°05' W 080°07'0 0.0
2018-Jun-18 18:30N 26°05' W 080°07'0 0.0
2018-Jun-18 18:00N 26°05' W 080°07'0 0.0
2018-Jun-18 17:30N 26°05' W 080°07'0 0.0
2018-Jun-18 17:00N 26°05' W 080°07'0 0.0
2018-Jun-18 16:29N 26°05' W 080°07'0 0.0
2018-Jun-18 16:00N 26°05' W 080°07'0 0.0
2018-Jun-18 15:30N 26°05' W 080°07'0 0.0
2018-Jun-18 15:00N 26°05' W 080°07'0 0.0
2018-Jun-18 14:30N 26°05' W 080°07'0 0.0
2018-Jun-18 14:00N 26°05' W 080°07'0 0.0
2018-Jun-18 13:30N 26°05' W 080°07'0 0.0
2018-Jun-18 13:00N 26°05' W 080°07'0 0.0
2018-Jun-18 12:30N 26°05' W 080°07'0 0.0
2018-Jun-18 12:00N 26°05' W 080°07'0 0.0
2018-Jun-18 11:30N 26°05' W 080°07'2 4.0
2018-Jun-18 11:00N 26°06' W 080°05'4 7.2
2018-Jun-18 10:30N 26°04' W 080°01'1 2.3
2018-Jun-18 10:00N 26°03' W 080°01'1 3.0
2018-Jun-18 09:30N 26°03' W 079°59'3 5.5
2018-Jun-18 09:00N 26°02' W 079°56'3 5.8
2018-Jun-18 08:30N 26°01' W 079°53'3 5.7
2018-Jun-18 08:00N 26°00' W 079°50'3 5.9
2018-Jun-18 07:30N 25°59' W 079°47'3 5.7
2018-Jun-18 07:00N 25°58' W 079°44'3 5.9
2018-Jun-18 06:30N 25°57' W 079°41'6 6.6
2018-Jun-18 05:37N 25°55' W 079°35'1 3.1
2018-Jun-18 05:27N 25°55' W 079°35'  
2018-Jun-12 07:08N 26°29' W 079°48'1 7.5
2018-Jun-12 07:00N 26°28' W 079°48'4 7.4
2018-Jun-12 06:30N 26°25' W 079°45'4 7.5
2018-Jun-12 05:58N 26°22' W 079°43'5 7.8
2018-Jun-12 05:20N 26°17' W 079°40'2 7.6
2018-Jun-12 05:00N 26°15' W 079°38'4 7.4
2018-Jun-12 04:30N 26°12' W 079°36'4 7.3
2018-Jun-12 04:00N 26°09' W 079°34'4 7.1
2018-Jun-12 03:30N 26°06' W 079°31'  

Dump ship's entire track history